Time;durP1;ratioP1;P1;durP2;ratioP2;P2;SDS_P1;SDS_P2;PMS_P1;PMS_P2;Temp;Humidity;BMP_temperature;BMP_pressure;BME280_temperature;BME280_humidity;BME280_pressure;Samples;Min_cycle;Max_cycle;Signal;HPM_P1;HPM_P2
2023/07/20 00:02:07;;;;;;;;;5.00;5.00;;;;;;;;5080696;27;46162;-42
2023/07/20 00:04:32;;;;;;;;;9.20;7.60;;;;;;;;5097703;27;45363;-43
2023/07/20 00:06:57;;;;;;;;;7.00;4.00;;;;;;;;5080038;27;45401;-44
2023/07/20 00:09:22;;;;;;;;;4.25;4.25;;;;;;;;5099199;27;45425;-42
2023/07/20 00:11:49;;;;;;;;;7.75;6.00;;;;;;;;5098534;27;45398;-44
2023/07/20 00:14:14;;;;;;;;;8.20;4.60;;;;;;;;5098701;27;45233;-45
2023/07/20 00:16:40;;;;;;;;;4.00;4.00;;;;;;;;5098971;27;45363;-44
2023/07/20 00:19:06;;;;;;;;;7.75;6.00;;;;;;;;5098874;27;45437;-42
2023/07/20 00:21:32;;;;;;;;;8.00;4.75;;;;;;;;5098636;27;47107;-43
2023/07/20 00:23:57;;;;;;;;;7.00;6.00;;;;;;;;5098420;27;45356;-44
2023/07/20 00:26:22;;;;;;;;;5.50;5.50;;;;;;;;5098518;27;45330;-40
2023/07/20 00:28:51;;;;;;;;;5.00;5.00;;;;;;;;5098695;27;45435;-43
2023/07/20 00:31:16;;;;;;;;;8.00;6.75;;;;;;;;5097081;27;45393;-44
2023/07/20 00:33:41;;;;;;;;;9.00;6.00;;;;;;;;5058719;27;1137378;-40
2023/07/20 00:36:07;;;;;;;;;4.25;3.00;;;;;;;;5099522;27;45262;-44
2023/07/20 00:38:32;;;;;;;;;6.25;5.25;;;;;;;;5099840;27;45278;-43
2023/07/20 00:40:57;;;;;;;;;8.50;6.00;;;;;;;;5098262;27;47313;-41
2023/07/20 00:43:22;;;;;;;;;4.00;4.00;;;;;;;;5099290;27;45255;-42
2023/07/20 00:45:47;;;;;;;;;6.25;5.75;;;;;;;;5099374;27;45344;-44
2023/07/20 00:48:14;;;;;;;;;6.00;6.00;;;;;;;;5099346;27;45375;-50
2023/07/20 00:50:39;;;;;;;;;7.00;4.00;;;;;;;;5098884;27;46292;-42
2023/07/20 00:53:05;;;;;;;;;5.75;3.00;;;;;;;;5099241;27;45426;-47
2023/07/20 00:55:31;;;;;;;;;5.00;5.00;;;;;;;;5098333;27;45283;-41
2023/07/20 00:57:56;;;;;;;;;5.75;4.25;;;;;;;;5099474;27;45372;-43
2023/07/20 01:00:22;;;;;;;;;5.25;4.50;;;;;;;;5098555;27;46064;-46
2023/07/20 01:02:47;;;;;;;;;6.50;5.00;;;;;;;;5098650;27;45357;-42
2023/07/20 01:05:13;;;;;;;;;6.25;4.75;;;;;;;;5097948;27;45421;-41
2023/07/20 01:07:40;;;;;;;;;4.25;4.25;;;;;;;;5098923;27;45361;-46
2023/07/20 01:10:10;;;;;;;;;4.75;4.75;;;;;;;;5098893;27;46209;-45
2023/07/20 01:12:42;;;;;;;;;6.75;6.00;;;;;;;;5098973;27;45369;-48
2023/07/20 01:15:08;;;;;;;;;6.75;5.25;;;;;;;;5098911;27;45219;-43
2023/07/20 01:17:33;;;;;;;;;7.25;5.00;;;;;;;;5099298;27;45262;-43
2023/07/20 01:19:58;;;;;;;;;6.75;4.00;;;;;;;;5098619;27;45192;-48
2023/07/20 01:22:32;;;;;;;;;5.25;4.00;;;;;;;;5098716;27;45437;-44
2023/07/20 01:25:05;;;;;;;;;6.00;5.00;;;;;;;;5099004;27;45290;-46
2023/07/20 01:27:39;;;;;;;;;3.50;3.00;;;;;;;;5098750;27;45555;-44
2023/07/20 01:30:04;;;;;;;;;7.50;4.00;;;;;;;;5098140;27;47251;-45
2023/07/20 01:32:31;;;;;;;;;5.00;3.50;;;;;;;;5098415;27;45398;-46
2023/07/20 01:34:57;;;;;;;;;4.75;4.75;;;;;;;;5098408;27;45336;-44
2023/07/20 01:37:25;;;;;;;;;4.00;4.00;;;;;;;;5098778;27;45312;-44
2023/07/20 01:39:51;;;;;;;;;5.00;3.25;;;;;;;;5098533;27;45220;-47
2023/07/20 01:42:16;;;;;;;;;4.25;4.00;;;;;;;;5098479;27;45128;-46
2023/07/20 01:44:42;;;;;;;;;6.50;3.00;;;;;;;;5098705;27;45222;-44
2023/07/20 01:47:07;;;;;;;;;6.25;6.25;;;;;;;;5098529;27;45494;-47
2023/07/20 01:49:32;;;;;;;;;5.75;4.25;;;;;;;;5098007;27;47142;-48
2023/07/20 01:51:58;;;;;;;;;4.75;4.75;;;;;;;;5098230;27;45349;-45
2023/07/20 01:54:23;;;;;;;;;2.00;1.50;;;;;;;;5098129;27;45818;-47
2023/07/20 01:56:48;;;;;;;;;5.00;5.00;;;;;;;;5098597;27;45224;-48
2023/07/20 01:59:13;;;;;;;;;5.00;3.50;;;;;;;;5079165;27;45569;-48
2023/07/20 02:01:38;;;;;;;;;4.00;4.00;;;;;;;;5098215;27;45333;-46
2023/07/20 02:04:04;;;;;;;;;4.25;4.25;;;;;;;;5098210;27;45369;-50
2023/07/20 02:06:29;;;;;;;;;5.50;4.00;;;;;;;;5098088;27;45302;-45
2023/07/20 02:08:54;;;;;;;;;4.00;4.00;;;;;;;;5097937;27;45525;-44
2023/07/20 02:11:19;;;;;;;;;3.25;3.00;;;;;;;;5097995;27;45618;-48
2023/07/20 02:13:44;;;;;;;;;4.25;4.25;;;;;;;;5097951;27;45298;-50
2023/07/20 02:16:11;;;;;;;;;6.00;4.00;;;;;;;;5098261;27;45290;-45
2023/07/20 02:18:36;;;;;;;;;3.00;3.00;;;;;;;;5097745;27;47121;-42
2023/07/20 02:21:02;;;;;;;;;5.00;4.75;;;;;;;;5097850;27;45386;-45
2023/07/20 02:23:27;;;;;;;;;3.75;3.00;;;;;;;;5098019;27;45513;-44
2023/07/20 02:25:52;;;;;;;;;7.00;4.00;;;;;;;;5098073;27;45389;-45
2023/07/20 02:28:17;;;;;;;;;3.50;3.50;;;;;;;;5097679;27;47291;-43
2023/07/20 02:30:43;;;;;;;;;6.00;3.00;;;;;;;;5097161;27;45288;-46
2023/07/20 02:33:08;;;;;;;;;2.75;2.75;;;;;;;;5097836;27;45327;-43
2023/07/20 02:35:33;;;;;;;;;4.00;2.25;;;;;;;;5097739;27;45342;-42
2023/07/20 02:37:58;;;;;;;;;2.75;2.75;;;;;;;;5097222;27;46069;-44
2023/07/20 02:40:24;;;;;;;;;4.00;4.00;;;;;;;;5097614;27;45230;-44
2023/07/20 02:42:49;;;;;;;;;6.50;4.00;;;;;;;;5097518;27;45209;-43
2023/07/20 02:45:14;;;;;;;;;4.00;4.00;;;;;;;;5097826;27;45358;-47
2023/07/20 02:47:40;;;;;;;;;3.50;3.50;;;;;;;;5097220;27;47108;-41
2023/07/20 02:50:06;;;;;;;;;5.00;3.25;;;;;;;;5097364;27;45357;-43
2023/07/20 02:52:32;;;;;;;;;3.50;2.75;;;;;;;;5096837;27;45222;-45
2023/07/20 02:54:57;;;;;;;;;3.50;3.50;;;;;;;;5097643;27;45418;-45
2023/07/20 02:57:22;;;;;;;;;2.00;2.00;;;;;;;;5097249;27;46200;-45
2023/07/20 02:59:47;;;;;;;;;2.00;2.00;;;;;;;;5097376;27;45394;-43
2023/07/20 03:02:12;;;;;;;;;3.00;3.00;;;;;;;;5096742;27;45451;-43
2023/07/20 03:04:38;;;;;;;;;3.25;3.25;;;;;;;;5097627;27;45353;-45
2023/07/20 03:07:07;;;;;;;;;4.75;2.75;;;;;;;;5097037;27;46153;-45
2023/07/20 03:09:32;;;;;;;;;5.25;3.00;;;;;;;;5097277;27;45197;-50
2023/07/20 03:11:58;;;;;;;;;5.75;3.25;;;;;;;;5097306;27;45857;-43
2023/07/20 03:14:23;;;;;;;;;7.50;3.50;;;;;;;;5097455;27;45378;-44
2023/07/20 03:16:49;;;;;;;;;6.75;4.00;;;;;;;;5096273;27;47055;-43
2023/07/20 03:19:14;;;;;;;;;3.00;3.00;;;;;;;;5097070;27;45488;-44
2023/07/20 03:21:40;;;;;;;;;3.00;3.00;;;;;;;;5097279;27;45236;-43
2023/07/20 03:24:06;;;;;;;;;3.00;3.00;;;;;;;;5097791;27;45226;-47
2023/07/20 03:26:31;;;;;;;;;3.75;3.25;;;;;;;;5100391;27;47129;-44
2023/07/20 03:28:57;;;;;;;;;3.75;3.00;;;;;;;;5100831;27;45378;-43
2023/07/20 03:31:22;;;;;;;;;2.75;2.75;;;;;;;;5100468;27;45254;-49
2023/07/20 03:33:47;;;;;;;;;7.50;3.50;;;;;;;;5100918;27;45357;-44
2023/07/20 03:36:12;;;;;;;;;3.00;3.00;;;;;;;;5100064;27;46257;-45
2023/07/20 03:38:38;;;;;;;;;5.00;3.00;;;;;;;;5100443;27;45421;-47
2023/07/20 03:41:03;;;;;;;;;3.50;3.50;;;;;;;;5100390;27;45421;-40
2023/07/20 03:43:28;;;;;;;;;4.50;4.00;;;;;;;;5099169;27;45347;-45
2023/07/20 03:45:53;;;;;;;;;2.00;2.00;;;;;;;;5098703;27;45501;-47
2023/07/20 03:48:20;;;;;;;;;2.50;2.50;;;;;;;;5100114;27;45412;-45
2023/07/20 03:50:45;;;;;;;;;5.50;5.50;;;;;;;;5100486;27;45462;-48
2023/07/20 03:53:11;;;;;;;;;9.00;5.00;;;;;;;;5100391;27;45531;-48
2023/07/20 03:55:36;;;;;;;;;6.00;3.00;;;;;;;;5100072;27;46411;-47
2023/07/20 03:58:01;;;;;;;;;3.00;3.00;;;;;;;;5100131;27;45357;-46
2023/07/20 04:00:26;;;;;;;;;7.00;4.75;;;;;;;;5100016;27;45366;-44
2023/07/20 04:02:52;;;;;;;;;6.25;3.25;;;;;;;;5100271;27;45361;-45
2023/07/20 04:05:17;;;;;;;;;9.00;7.00;;;;;;;;5081401;27;48177;-47
2023/07/20 04:07:42;;;;;;;;;6.25;4.50;;;;;;;;5099742;27;45302;-47
2023/07/20 04:10:08;;;;;;;;;5.75;5.75;;;;;;;;5100037;27;45378;-45
2023/07/20 04:12:33;;;;;;;;;5.25;5.25;;;;;;;;5100059;27;45287;-48
2023/07/20 04:14:58;;;;;;;;;6.00;4.00;;;;;;;;5099878;27;46271;-45
2023/07/20 04:17:23;;;;;;;;;9.00;5.50;;;;;;;;5099712;27;45211;-45
2023/07/20 04:19:48;;;;;;;;;3.50;3.00;;;;;;;;5099886;27;45413;-45
2023/07/20 04:22:15;;;;;;;;;4.75;4.75;;;;;;;;5099872;27;45358;-46
2023/07/20 04:24:41;;;;;;;;;5.75;4.00;;;;;;;;5099437;27;46156;-45
2023/07/20 04:27:06;;;;;;;;;2.75;2.75;;;;;;;;5099719;27;45355;-43
2023/07/20 04:29:31;;;;;;;;;7.00;5.00;;;;;;;;5099686;27;45485;-43
2023/07/20 04:31:57;;;;;;;;;4.50;4.00;;;;;;;;5099519;27;45379;-45
2023/07/20 04:34:22;;;;;;;;;5.50;4.00;;;;;;;;5099569;27;45354;-43
2023/07/20 04:36:47;;;;;;;;;6.50;4.50;;;;;;;;5098091;27;45475;-44
2023/07/20 04:39:12;;;;;;;;;3.75;3.75;;;;;;;;5099625;27;45350;-46
2023/07/20 04:41:37;;;;;;;;;5.00;3.00;;;;;;;;5099617;27;45252;-43
2023/07/20 04:44:02;;;;;;;;;5.00;4.25;;;;;;;;5099250;27;46585;-45
2023/07/20 04:46:28;;;;;;;;;6.25;6.25;;;;;;;;5099139;27;45433;-45
2023/07/20 04:48:53;;;;;;;;;4.75;3.50;;;;;;;;5099553;27;45301;-48
2023/07/20 04:51:20;;;;;;;;;5.75;4.00;;;;;;;;5099557;27;45378;-47
2023/07/20 04:53:46;;;;;;;;;2.00;2.00;;;;;;;;5099040;27;46371;-45
2023/07/20 04:56:11;;;;;;;;;5.50;3.25;;;;;;;;5098881;27;45704;-47
2023/07/20 04:58:36;;;;;;;;;5.25;4.50;;;;;;;;5099271;27;45392;-43
2023/07/20 05:01:01;;;;;;;;;4.25;4.25;;;;;;;;5099414;27;45203;-45
2023/07/20 05:03:27;;;;;;;;;7.75;4.00;;;;;;;;5098800;27;46814;-45
2023/07/20 05:05:52;;;;;;;;;8.00;5.00;;;;;;;;5098860;27;45317;-45
2023/07/20 05:08:17;;;;;;;;;5.50;3.25;;;;;;;;5099200;27;45491;-45
2023/07/20 05:10:42;;;;;;;;;3.50;3.50;;;;;;;;5099054;27;45239;-46
2023/07/20 05:13:08;;;;;;;;;3.75;2.75;;;;;;;;5100273;27;46460;-43
2023/07/20 05:15:34;;;;;;;;;4.00;4.00;;;;;;;;5108723;27;45334;-45
2023/07/20 05:17:59;;;;;;;;;7.25;4.25;;;;;;;;5107808;27;45430;-44
2023/07/20 05:20:25;;;;;;;;;3.00;3.00;;;;;;;;5098977;27;45409;-45
2023/07/20 05:22:50;;;;;;;;;5.75;5.00;;;;;;;;5079322;27;47385;-42
2023/07/20 05:25:18;;;;;;;;;4.75;4.25;;;;;;;;5098602;27;45374;-48
2023/07/20 05:27:46;;;;;;;;;5.50;3.00;;;;;;;;5098757;27;45389;-43
2023/07/20 05:30:11;;;;;;;;;4.25;3.75;;;;;;;;5098681;27;45373;-46
2023/07/20 05:32:36;;;;;;;;;4.00;3.50;;;;;;;;5098371;27;46245;-45
2023/07/20 05:35:01;;;;;;;;;5.75;2.75;;;;;;;;5098613;27;45255;-45
2023/07/20 05:37:27;;;;;;;;;3.00;3.00;;;;;;;;5098591;27;45302;-43
2023/07/20 05:39:52;;;;;;;;;6.00;3.25;;;;;;;;5098726;27;45414;-40
2023/07/20 05:42:17;;;;;;;;;2.75;2.75;;;;;;;;5098337;27;45939;-40
2023/07/20 05:44:42;;;;;;;;;3.25;3.00;;;;;;;;5098404;27;45410;-43
2023/07/20 05:47:08;;;;;;;;;5.25;3.25;;;;;;;;5098149;27;45366;-43
2023/07/20 05:49:34;;;;;;;;;4.00;4.00;;;;;;;;5098714;27;45368;-43
2023/07/20 05:52:00;;;;;;;;;5.25;3.00;;;;;;;;5097988;27;46940;-42
2023/07/20 05:54:26;;;;;;;;;4.00;3.00;;;;;;;;5098210;27;45265;-45
2023/07/20 05:56:51;;;;;;;;;6.25;5.00;;;;;;;;5098450;27;45415;-49
2023/07/20 05:59:16;;;;;;;;;5.75;4.00;;;;;;;;5098678;27;45288;-45
2023/07/20 06:01:41;;;;;;;;;3.50;2.00;;;;;;;;5098079;27;45884;-48
2023/07/20 06:04:06;;;;;;;;;7.50;3.00;;;;;;;;5098203;27;45200;-52
2023/07/20 06:06:32;;;;;;;;;4.00;2.75;;;;;;;;5098184;27;45555;-46
2023/07/20 06:08:57;;;;;;;;;2.50;2.50;;;;;;;;5096540;27;45338;-50
2023/07/20 06:11:22;;;;;;;;;7.00;4.00;;;;;;;;5097941;27;45464;-44
2023/07/20 06:13:47;;;;;;;;;3.00;3.00;;;;;;;;5097958;27;45533;-47
2023/07/20 06:16:13;;;;;;;;;4.00;3.00;;;;;;;;5098358;27;45243;-50
2023/07/20 06:18:38;;;;;;;;;4.50;4.50;;;;;;;;5098037;27;45444;-44
2023/07/20 06:21:03;;;;;;;;;2.75;2.75;;;;;;;;5097543;27;47254;-43
2023/07/20 06:23:29;;;;;;;;;7.75;6.50;;;;;;;;5097833;27;45330;-44
2023/07/20 06:25:54;;;;;;;;;6.33;4.00;;;;;;;;5097849;27;45231;-49
2023/07/20 06:28:19;;;;;;;;;4.00;4.00;;;;;;;;5098153;27;45394;-42
2023/07/20 06:30:44;;;;;;;;;6.75;4.50;;;;;;;;5097492;27;46333;-46
2023/07/20 06:33:09;;;;;;;;;6.25;3.00;;;;;;;;5097723;27;45380;-43
2023/07/20 06:35:35;;;;;;;;;8.00;4.50;;;;;;;;5097551;27;45269;-46
2023/07/20 06:38:01;;;;;;;;;9.75;6.75;;;;;;;;5097745;27;45399;-48
2023/07/20 06:40:26;;;;;;;;;5.00;5.00;;;;;;;;5097538;27;46314;-41
2023/07/20 06:42:51;;;;;;;;;9.00;7.50;;;;;;;;5097473;27;45316;-48
2023/07/20 06:45:16;;;;;;;;;6.00;4.50;;;;;;;;5097859;27;45417;-45
2023/07/20 06:47:42;;;;;;;;;5.00;5.00;;;;;;;;5097625;27;45442;-44
2023/07/20 06:50:07;;;;;;;;;1.75;1.75;;;;;;;;5097256;27;46007;-46
2023/07/20 06:52:33;;;;;;;;;7.25;4.25;;;;;;;;5097409;27;45427;-45
2023/07/20 06:54:58;;;;;;;;;5.25;4.00;;;;;;;;5097392;27;45437;-46
2023/07/20 06:57:23;;;;;;;;;4.25;4.25;;;;;;;;5097867;27;45337;-44
2023/07/20 06:59:49;;;;;;;;;4.50;4.50;;;;;;;;5098705;27;45321;-50
2023/07/20 07:02:14;;;;;;;;;5.75;3.00;;;;;;;;5100867;27;45847;-44
2023/07/20 07:04:39;;;;;;;;;5.00;5.00;;;;;;;;5099482;27;45421;-46
2023/07/20 07:07:04;;;;;;;;;6.00;3.75;;;;;;;;5101101;27;45260;-45
2023/07/20 07:09:29;;;;;;;;;4.00;3.00;;;;;;;;5100897;27;46080;-50
2023/07/20 07:11:55;;;;;;;;;4.50;4.00;;;;;;;;5100679;27;45213;-50
2023/07/20 07:14:20;;;;;;;;;4.50;4.50;;;;;;;;5100772;27;45190;-48
2023/07/20 07:16:45;;;;;;;;;5.00;3.00;;;;;;;;5101210;27;45266;-49
2023/07/20 07:19:10;;;;;;;;;3.50;2.50;;;;;;;;5100471;27;45951;-51
2023/07/20 07:21:36;;;;;;;;;4.25;3.50;;;;;;;;5100389;27;45378;-45
2023/07/20 07:24:01;;;;;;;;;4.25;3.25;;;;;;;;5100682;27;45477;-45
2023/07/20 07:26:26;;;;;;;;;4.75;3.75;;;;;;;;5100782;27;45232;-47
2023/07/20 07:28:51;;;;;;;;;4.00;3.00;;;;;;;;5100380;27;46190;-43
2023/07/20 07:31:17;;;;;;;;;4.00;4.00;;;;;;;;5100477;27;45275;-45
2023/07/20 07:33:42;;;;;;;;;2.25;2.25;;;;;;;;5100338;27;45235;-45
2023/07/20 07:36:07;;;;;;;;;4.00;2.00;;;;;;;;5100660;27;45456;-43
2023/07/20 07:38:33;;;;;;;;;4.25;3.00;;;;;;;;5100393;27;46036;-48
2023/07/20 07:40:58;;;;;;;;;6.50;3.50;;;;;;;;5100424;27;45381;-45
2023/07/20 07:43:24;;;;;;;;;2.75;2.25;;;;;;;;5100237;27;45367;-43
2023/07/20 07:45:49;;;;;;;;;5.50;3.50;;;;;;;;5100622;27;45483;-49
2023/07/20 07:48:14;;;;;;;;;5.50;3.50;;;;;;;;5099899;27;46292;-48
2023/07/20 07:50:40;;;;;;;;;2.75;2.75;;;;;;;;5100112;27;45441;-46
2023/07/20 07:53:05;;;;;;;;;4.50;2.50;;;;;;;;5099617;27;45404;-44
2023/07/20 07:55:30;;;;;;;;;4.50;3.00;;;;;;;;5112946;27;45340;-40
2023/07/20 07:57:55;;;;;;;;;3.25;3.00;;;;;;;;5102378;27;46088;-43
2023/07/20 08:00:21;;;;;;;;;2.25;1.75;;;;;;;;5096465;27;45473;-41
2023/07/20 08:02:47;;;;;;;;;5.00;2.50;;;;;;;;5096638;27;45446;-42
2023/07/20 08:05:13;;;;;;;;;3.60;3.60;;;;;;;;5097055;27;45339;-41
2023/07/20 08:07:38;;;;;;;;;4.00;4.00;;;;;;;;5096620;27;46319;-42
2023/07/20 08:10:04;;;;;;;;;10.00;10.00;;;;;;;;5096754;27;45429;-43
2023/07/20 08:12:29;;;;;;;;;8.50;4.00;;;;;;;;5097541;27;45873;-42
2023/07/20 08:14:54;;;;;;;;;12.25;10.25;;;;;;;;5097109;27;45556;-41
2023/07/20 08:17:19;;;;;;;;;1.00;0.00;;;;;;;;5097408;27;46511;-48
2023/07/20 08:19:46;;;;;;;;;3.25;2.50;;;;;;;;5096960;27;45323;-45
2023/07/20 08:22:12;;;;;;;;;3.20;2.80;;;;;;;;5096692;27;45426;-47
2023/07/20 08:24:39;;;;;;;;;3.20;2.40;;;;;;;;5096392;27;45587;-43
2023/07/20 08:27:05;;;;;;;;;2.80;2.80;;;;;;;;5096209;27;45513;-41
2023/07/20 08:29:30;;;;;;;;;5.50;3.75;;;;;;;;5096883;27;45365;-40
2023/07/20 08:31:55;;;;;;;;;3.00;3.00;;;;;;;;5096504;27;45482;-41
2023/07/20 08:34:20;;;;;;;;;5.00;5.00;;;;;;;;5095859;27;45275;-41
2023/07/20 08:36:45;;;;;;;;;4.25;3.00;;;;;;;;5095898;27;45674;-42
2023/07/20 08:39:10;;;;;;;;;5.00;3.50;;;;;;;;5096963;27;45686;-42
2023/07/20 08:41:37;;;;;;;;;2.00;2.00;;;;;;;;5096781;27;45357;-41
2023/07/20 08:44:02;;;;;;;;;3.80;3.00;;;;;;;;5096607;27;45587;-40
2023/07/20 08:46:28;;;;;;;;;3.25;3.00;;;;;;;;5096114;27;45440;-41
2023/07/20 08:48:54;;;;;;;;;6.40;2.80;;;;;;;;5095500;27;45582;-41
2023/07/20 08:51:20;;;;;;;;;2.80;2.80;;;;;;;;5095342;27;45433;-41
2023/07/20 08:53:47;;;;;;;;;3.00;1.20;;;;;;;;5096549;27;45418;-42
2023/07/20 08:56:13;;;;;;;;;3.00;2.00;;;;;;;;5095830;27;46229;-42
2023/07/20 08:58:39;;;;;;;;;0.20;0.00;;;;;;;;5096259;27;45388;-43
2023/07/20 09:01:04;;;;;;;;;1.00;1.00;;;;;;;;5096484;27;45437;-42
2023/07/20 09:03:29;;;;;;;;;3.00;1.25;;;;;;;;5096398;27;45557;-41
2023/07/20 09:05:55;;;;;;;;;1.00;1.00;;;;;;;;5096237;27;45860;-42
2023/07/20 09:08:20;;;;;;;;;1.00;1.00;;;;;;;;5095773;27;45337;-40
2023/07/20 09:10:45;;;;;;;;;1.75;1.75;;;;;;;;5096378;27;45552;-42
2023/07/20 09:13:14;;;;;;;;;0.75;0.75;;;;;;;;5095938;27;45589;-40
2023/07/20 09:15:39;;;;;;;;;1.20;0.80;;;;;;;;5095703;27;46384;-42
2023/07/20 09:18:04;;;;;;;;;0.75;0.75;;;;;;;;5095879;27;45469;-41
2023/07/20 09:20:31;;;;;;;;;0.75;0.75;;;;;;;;5095881;27;45276;-41
2023/07/20 09:22:56;;;;;;;;;1.80;0.80;;;;;;;;5076815;27;45347;-41
2023/07/20 09:25:22;;;;;;;;;0.25;0.25;;;;;;;;5095630;27;45354;-41
2023/07/20 09:27:48;;;;;;;;;0.50;0.50;;;;;;;;5095631;27;45381;-42
2023/07/20 09:30:14;;;;;;;;;0.20;0.00;;;;;;;;5095810;27;45568;-43
2023/07/20 09:32:40;;;;;;;;;0.20;0.20;;;;;;;;5077365;27;45537;-47
2023/07/20 09:35:06;;;;;;;;;1.50;1.50;;;;;;;;5094975;27;45907;-43
2023/07/20 09:37:33;;;;;;;;;1.75;0.25;;;;;;;;5095835;27;45416;-43
2023/07/20 09:39:58;;;;;;;;;1.80;0.40;;;;;;;;5095036;27;45407;-42
2023/07/20 09:42:25;;;;;;;;;0.75;0.75;;;;;;;;5096170;27;45408;-45
2023/07/20 09:44:50;;;;;;;;;1.20;1.20;;;;;;;;5095365;27;46429;-41
2023/07/20 09:47:21;;;;;;;;;1.50;1.50;;;;;;;;5095537;27;45308;-41
2023/07/20 09:49:46;;;;;;;;;1.40;1.20;;;;;;;;5095471;27;45429;-43
2023/07/20 09:52:12;;;;;;;;;1.00;1.00;;;;;;;;5095370;27;45465;-43
2023/07/20 09:54:38;;;;;;;;;0.00;0.00;;;;;;;;5095514;27;46377;-42
2023/07/20 09:57:06;;;;;;;;;1.00;1.00;;;;;;;;5095299;27;45468;-42
2023/07/20 09:59:31;;;;;;;;;1.20;1.20;;;;;;;;5094236;27;45468;-41
2023/07/20 10:01:58;;;;;;;;;2.00;0.00;;;;;;;;5095280;27;46053;-40
2023/07/20 10:04:24;;;;;;;;;3.00;0.80;;;;;;;;5094824;27;47053;-41
2023/07/20 10:06:52;;;;;;;;;2.00;0.40;;;;;;;;5092339;27;45484;-42
2023/07/20 10:09:18;;;;;;;;;0.80;0.80;;;;;;;;5095114;27;45415;-41
2023/07/20 10:11:45;;;;;;;;;2.20;1.00;;;;;;;;5095240;27;45422;-41
2023/07/20 10:14:12;;;;;;;;;1.00;1.00;;;;;;;;5095107;27;46280;-40
2023/07/20 10:16:47;;;;;;;;;0.80;0.80;;;;;;;;5094549;27;45437;-42
2023/07/20 10:19:31;;;;;;;;;1.00;1.00;;;;;;;;5093490;27;45421;-39
2023/07/20 10:21:59;;;;;;;;;2.40;2.40;;;;;;;;5095162;27;45441;-41
2023/07/20 10:24:25;;;;;;;;;4.20;3.00;;;;;;;;5094869;27;47107;-41
2023/07/20 10:26:50;;;;;;;;;1.50;1.50;;;;;;;;5094115;27;45422;-41
2023/07/20 10:29:16;;;;;;;;;4.00;3.00;;;;;;;;5095315;27;45443;-41
2023/07/20 10:31:42;;;;;;;;;3.75;3.00;;;;;;;;5094931;27;45852;-41
2023/07/20 10:34:07;;;;;;;;;0.25;0.25;;;;;;;;5096753;27;45535;-44
2023/07/20 10:36:32;;;;;;;;;2.25;1.00;;;;;;;;5098296;27;45320;-45
2023/07/20 10:38:58;;;;;;;;;0.00;0.00;;;;;;;;5098380;27;45524;-48
2023/07/20 10:41:39;;;;;;;;;1.00;1.00;;;;;;;;5098894;27;45495;-45
2023/07/20 10:44:05;;;;;;;;;1.00;0.60;;;;;;;;5098262;27;46286;-43
2023/07/20 10:46:39;;;;;;;;;3.00;0.80;;;;;;;;5098379;27;45416;-43
2023/07/20 10:49:05;;;;;;;;;3.80;1.80;;;;;;;;5097549;27;45478;-49
2023/07/20 10:51:38;;;;;;;;;1.20;1.20;;;;;;;;5098548;27;45326;-43
2023/07/20 10:54:03;;;;;;;;;0.80;0.00;;;;;;;;5097813;27;45828;-42
2023/07/20 10:56:32;;;;;;;;;1.00;1.00;;;;;;;;5098091;27;45412;-41
2023/07/20 10:59:00;;;;;;;;;1.40;1.40;;;;;;;;5098113;27;45463;-41
2023/07/20 11:01:30;;;;;;;;;1.00;1.00;;;;;;;;5098159;27;45466;-42
2023/07/20 11:03:58;;;;;;;;;0.20;0.20;;;;;;;;5097421;27;47069;-41
2023/07/20 11:06:23;;;;;;;;;2.60;1.00;;;;;;;;5098162;27;45418;-42
2023/07/20 11:08:48;;;;;;;;;0.25;0.25;;;;;;;;5098119;27;45676;-41
2023/07/20 11:11:23;;;;;;;;;0.75;0.75;;;;;;;;5098237;27;45509;-45
2023/07/20 11:14:09;;;;;;;;;1.80;1.80;;;;;;;;5098138;27;46548;-41
2023/07/20 11:16:38;;;;;;;;;2.80;1.00;;;;;;;;5014767;28;45353;-41
2023/07/20 11:19:04;;;;;;;;;1.00;0.00;;;;;;;;5014398;28;45375;-43
2023/07/20 11:21:35;;;;;;;;;0.00;0.00;;;;;;;;5014869;28;45484;-43
2023/07/20 11:24:02;;;;;;;;;1.40;1.20;;;;;;;;5014419;28;46273;-47
2023/07/20 11:26:27;;;;;;;;;2.00;2.00;;;;;;;;5014490;28;45390;-43
2023/07/20 11:28:52;;;;;;;;;3.75;0.75;;;;;;;;5014340;28;45458;-45
2023/07/20 11:31:18;;;;;;;;;0.75;0.75;;;;;;;;5014491;28;45463;-43
2023/07/20 11:33:44;;;;;;;;;2.25;1.00;;;;;;;;5014256;28;46348;-45
2023/07/20 11:36:09;;;;;;;;;3.00;1.50;;;;;;;;5014428;28;45788;-44
2023/07/20 11:38:34;;;;;;;;;1.25;1.25;;;;;;;;5014381;28;45701;-41
2023/07/20 11:41:00;;;;;;;;;0.00;0.00;;;;;;;;5014314;28;45771;-42
2023/07/20 11:43:25;;;;;;;;;2.25;2.25;;;;;;;;5013991;28;46125;-47
2023/07/20 11:45:51;;;;;;;;;7.25;6.75;;;;;;;;5013617;28;45925;-43
2023/07/20 11:48:16;;;;;;;;;3.50;3.50;;;;;;;;5016295;28;45336;-42
2023/07/20 11:50:42;;;;;;;;;1.50;1.50;;;;;;;;5017575;28;45556;-43
2023/07/20 11:53:07;;;;;;;;;4.00;4.00;;;;;;;;5033723;28;46128;-42
2023/07/20 11:55:32;;;;;;;;;6.00;4.50;;;;;;;;5079586;27;45355;-40
2023/07/20 11:58:04;;;;;;;;;0.75;0.75;;;;;;;;5078059;28;45429;-41
2023/07/20 12:00:29;;;;;;;;;4.20;1.60;;;;;;;;5079527;28;45385;-42
2023/07/20 12:02:55;;;;;;;;;6.50;2.50;;;;;;;;5078904;27;45401;-41
2023/07/20 12:05:22;;;;;;;;;1.25;1.25;;;;;;;;5078172;28;45537;-41
2023/07/20 12:07:47;;;;;;;;;1.20;1.00;;;;;;;;5079015;28;45277;-42
2023/07/20 12:10:13;;;;;;;;;1.00;1.00;;;;;;;;5079397;28;45238;-41
2023/07/20 12:12:39;;;;;;;;;1.00;1.00;;;;;;;;5079321;28;46207;-42
2023/07/20 12:15:14;;;;;;;;;1.00;0.00;;;;;;;;5079076;28;45334;-41
2023/07/20 12:17:42;;;;;;;;;1.00;1.00;;;;;;;;5078388;28;45516;-41
2023/07/20 12:20:08;;;;;;;;;0.80;0.80;;;;;;;;5079458;28;45355;-41
2023/07/20 12:22:38;;;;;;;;;0.50;0.50;;;;;;;;5078736;28;47339;-40
2023/07/20 12:25:05;;;;;;;;;0.80;0.80;;;;;;;;5079086;28;45476;-39
2023/07/20 12:27:30;;;;;;;;;0.80;0.80;;;;;;;;5078923;28;45388;-42
2023/07/20 12:29:57;;;;;;;;;2.25;1.00;;;;;;;;5079366;28;45245;-41
2023/07/20 12:32:22;;;;;;;;;1.00;1.00;;;;;;;;5087483;27;47045;-42
2023/07/20 12:34:47;;;;;;;;;1.50;1.50;;;;;;;;5099211;27;45220;-42
2023/07/20 12:37:13;;;;;;;;;3.75;1.00;;;;;;;;5099650;27;45373;-47
2023/07/20 12:39:39;;;;;;;;;1.00;1.00;;;;;;;;5099422;27;45218;-43
2023/07/20 12:42:04;;;;;;;;;2.50;1.75;;;;;;;;5098886;27;46140;-44
2023/07/20 12:44:29;;;;;;;;;0.75;0.75;;;;;;;;5097565;27;45323;-42
2023/07/20 12:46:55;;;;;;;;;1.00;1.00;;;;;;;;5098540;27;45344;-40
2023/07/20 12:49:20;;;;;;;;;1.00;1.00;;;;;;;;5098242;27;45478;-46
2023/07/20 12:51:45;;;;;;;;;1.00;1.00;;;;;;;;5098849;27;46229;-43
2023/07/20 12:54:10;;;;;;;;;1.00;1.00;;;;;;;;5098829;27;45496;-45
2023/07/20 12:56:36;;;;;;;;;3.00;1.50;;;;;;;;5098230;27;45403;-45
2023/07/20 12:59:02;;;;;;;;;1.75;1.75;;;;;;;;5098953;27;45361;-44
2023/07/20 13:01:28;;;;;;;;;0.20;0.20;;;;;;;;5098800;27;46201;-44
2023/07/20 13:03:54;;;;;;;;;2.25;1.75;;;;;;;;5101434;27;45344;-41
2023/07/20 13:06:19;;;;;;;;;2.75;2.75;;;;;;;;5113144;27;45510;-44
2023/07/20 13:08:45;;;;;;;;;3.25;1.75;;;;;;;;5096025;27;45392;-44
2023/07/20 13:11:10;;;;;;;;;1.25;1.25;;;;;;;;5095167;27;45361;-43
2023/07/20 13:13:35;;;;;;;;;1.00;1.00;;;;;;;;5095793;27;45413;-42
2023/07/20 13:16:00;;;;;;;;;1.75;1.50;;;;;;;;5095700;27;45359;-42
2023/07/20 13:18:25;;;;;;;;;1.00;1.00;;;;;;;;5095249;27;45594;-44
2023/07/20 13:20:50;;;;;;;;;1.00;1.00;;;;;;;;5095707;27;46162;-44
2023/07/20 13:23:16;;;;;;;;;2.50;2.50;;;;;;;;5095519;27;45423;-43
2023/07/20 13:25:42;;;;;;;;;1.00;1.00;;;;;;;;5095555;27;45307;-46
2023/07/20 13:28:07;;;;;;;;;1.00;1.00;;;;;;;;5091884;27;45469;-46
2023/07/20 13:30:33;;;;;;;;;1.00;1.00;;;;;;;;5095097;27;45968;-41
2023/07/20 13:32:58;;;;;;;;;1.60;1.60;;;;;;;;5095146;27;45485;-42
2023/07/20 13:35:23;;;;;;;;;4.00;3.00;;;;;;;;5094766;27;45465;-42
2023/07/20 13:37:49;;;;;;;;;1.75;1.00;;;;;;;;5095340;27;45440;-41
2023/07/20 13:40:16;;;;;;;;;3.25;2.00;;;;;;;;5093772;27;46120;-42
2023/07/20 13:42:42;;;;;;;;;1.60;1.20;;;;;;;;5094909;27;45565;-42
2023/07/20 13:45:07;;;;;;;;;1.75;1.00;;;;;;;;5095354;27;45848;-42
2023/07/20 13:47:32;;;;;;;;;2.50;2.00;;;;;;;;5094718;27;45508;-41
2023/07/20 13:49:57;;;;;;;;;3.50;2.75;;;;;;;;5094755;27;45528;-42
2023/07/20 13:52:23;;;;;;;;;2.00;2.00;;;;;;;;5094888;27;45651;-42
2023/07/20 13:54:48;;;;;;;;;0.75;0.75;;;;;;;;5094756;27;45402;-40
2023/07/20 13:57:14;;;;;;;;;1.50;1.50;;;;;;;;5095276;27;45580;-40
2023/07/20 13:59:40;;;;;;;;;1.20;1.20;;;;;;;;5094290;27;45373;-41
2023/07/20 14:02:05;;;;;;;;;3.00;2.00;;;;;;;;5094595;27;45358;-40
2023/07/20 14:04:30;;;;;;;;;1.00;1.00;;;;;;;;5094579;27;45412;-41
2023/07/20 14:06:55;;;;;;;;;2.00;2.00;;;;;;;;5094557;27;45413;-41
2023/07/20 14:09:21;;;;;;;;;1.00;1.00;;;;;;;;5075823;27;47174;-42
2023/07/20 14:11:46;;;;;;;;;1.75;0.50;;;;;;;;5094189;27;45400;-40
2023/07/20 14:14:11;;;;;;;;;1.00;1.00;;;;;;;;5094990;27;45424;-40
2023/07/20 14:16:36;;;;;;;;;4.25;2.00;;;;;;;;5094838;27;45473;-43
2023/07/20 14:19:01;;;;;;;;;1.75;1.50;;;;;;;;5094481;27;46094;-42
2023/07/20 14:21:28;;;;;;;;;2.25;1.75;;;;;;;;5094649;27;45341;-41
2023/07/20 14:23:54;;;;;;;;;1.00;1.00;;;;;;;;5094217;27;45518;-44
2023/07/20 14:26:19;;;;;;;;;3.25;2.00;;;;;;;;5094948;27;45408;-42
2023/07/20 14:28:45;;;;;;;;;0.75;0.75;;;;;;;;5094259;27;46017;-40
2023/07/20 14:31:10;;;;;;;;;2.75;2.00;;;;;;;;5094409;27;45802;-42
2023/07/20 14:33:35;;;;;;;;;3.75;3.75;;;;;;;;5093907;27;45425;-42
2023/07/20 14:36:01;;;;;;;;;3.50;2.75;;;;;;;;5094527;27;46097;-42